Time;durP1;ratioP1;P1;durP2;ratioP2;P2;SDS_P1;SDS_P2;PMS_P1;PMS_P2;Temp;Humidity;BMP_temperature;BMP_pressure;BME280_temperature;BME280_humidity;BME280_pressure;Samples;Min_cycle;Max_cycle;Signal;HPM_P1;HPM_P2
2021/03/10 00:01:04;;;;;;;;;;;;;;;17.39;34.18;100115.88;4414307;32;19969;-48
2021/03/10 00:03:29;;;;;;;;;;;;;;;17.43;33.99;100111.59;4416014;32;20387;-48
2021/03/10 00:05:55;;;;;;;;;;;;;;;17.44;34.08;100115.09;4415076;32;19950;-48
2021/03/10 00:08:21;;;;;;;;;;;;;;;17.42;34.13;100118.56;4422396;32;19958;-51
2021/03/10 00:10:47;;;;;;;;;;;;;;;17.41;34.06;100119.44;4418399;32;20045;-47
2021/03/10 00:13:13;;;;;;;;;;;;;;;17.37;34.20;100112.34;4413574;32;19991;-46
2021/03/10 00:15:39;;;;;;;;;;;;;;;17.35;34.16;100113.16;4411919;32;19985;-48
2021/03/10 00:18:05;;;;;;;;;;;;;;;17.42;34.04;100122.97;4416756;32;19960;-45
2021/03/10 00:20:30;;;;;;;;;;;;;;;17.42;34.05;100115.94;4423152;32;21081;-48
2021/03/10 00:22:56;;;;;;;;;;;;;;;17.45;33.99;100114.22;4424973;32;19982;-49
2021/03/10 00:25:22;;;;;;;;;;;;;;;17.47;34.01;100112.50;4413962;32;19976;-49
2021/03/10 00:27:48;;;;;;;;;;;;;;;17.44;34.06;100112.47;4415264;32;19958;-48
2021/03/10 00:30:16;;;;;;;;;;;;;;;17.40;34.04;100122.94;4414450;32;19954;-47
2021/03/10 00:32:41;;;;;;;;;;;;;;;17.36;34.21;100118.47;4415146;32;20423;-50
2021/03/10 00:35:07;;;;;;;;;;;;;;;17.36;34.17;100120.19;4420533;32;19985;-47
2021/03/10 00:37:33;;;;;;;;;;;;;;;17.36;34.11;100121.09;4425703;32;20938;-46
2021/03/10 00:39:59;;;;;;;;;;;;;;;17.36;34.11;100125.47;4416909;32;19966;-46
2021/03/10 00:42:25;;;;;;;;;;;;;;;17.37;34.16;100122.88;4417218;32;19954;-49
2021/03/10 00:44:51;;;;;;;;;;;;;;;17.36;34.21;100126.38;4417263;32;20011;-46
2021/03/10 00:47:17;;;;;;;;;;;;;;;17.35;34.12;100132.50;4414057;32;20020;-49
2021/03/10 00:49:43;;;;;;;;;;;;;;;17.32;34.20;100140.28;4419484;32;19962;-46
2021/03/10 00:52:09;;;;;;;;;;;;;;;17.30;34.23;100134.12;4413885;32;20013;-44
2021/03/10 00:54:34;;;;;;;;;;;;;;;17.27;34.33;100134.06;4417520;32;20011;-46
2021/03/10 00:57:00;;;;;;;;;;;;;;;17.26;34.30;100142.81;4412559;32;19957;-45
2021/03/10 00:59:26;;;;;;;;;;;;;;;17.27;34.23;100139.31;4411410;32;19954;-50
2021/03/10 01:01:52;;;;;;;;;;;;;;;17.32;34.15;100144.69;4414842;32;19938;-49
2021/03/10 01:04:18;;;;;;;;;;;;;;;17.28;34.22;100138.47;4408657;32;20386;-47
2021/03/10 01:06:44;;;;;;;;;;;;;;;17.26;34.21;100134.91;4413961;32;20298;-48
2021/03/10 01:09:10;;;;;;;;;;;;;;;17.28;34.18;100139.38;4413981;32;19958;-50
2021/03/10 01:11:36;;;;;;;;;;;;;;;17.30;34.21;100131.47;4416943;32;19977;-47
2021/03/10 01:14:02;;;;;;;;;;;;;;;17.31;34.20;100130.62;4415331;32;19969;-46
2021/03/10 01:16:27;;;;;;;;;;;;;;;17.27;34.19;100129.66;4418763;32;19953;-50
2021/03/10 01:18:53;;;;;;;;;;;;;;;17.17;34.45;100130.34;4416153;32;19999;-51
2021/03/10 01:21:19;;;;;;;;;;;;;;;17.22;34.36;100133.97;4413836;32;20699;-51
2021/03/10 01:23:45;;;;;;;;;;;;;;;17.27;34.21;100129.66;4414122;32;19954;-52
2021/03/10 01:26:11;;;;;;;;;;;;;;;17.23;34.32;100113.81;4416728;32;19997;-49
2021/03/10 01:28:37;;;;;;;;;;;;;;;17.28;34.23;100123.56;4413201;32;19994;-48
2021/03/10 01:31:03;;;;;;;;;;;;;;;17.25;34.26;100125.25;4420629;32;19968;-50
2021/03/10 01:33:28;;;;;;;;;;;;;;;17.18;34.35;100125.97;4422597;32;20375;-47
2021/03/10 01:35:54;;;;;;;;;;;;;;;17.17;34.46;100124.19;4413890;32;19958;-50
2021/03/10 01:38:20;;;;;;;;;;;;;;;17.26;34.29;100111.22;4415008;32;19954;-47
2021/03/10 01:40:46;;;;;;;;;;;;;;;17.27;34.24;100110.38;4416477;32;20678;-49
2021/03/10 01:43:12;;;;;;;;;;;;;;;17.30;34.16;100105.16;4415955;32;19954;-46
2021/03/10 01:45:38;;;;;;;;;;;;;;;17.18;34.33;100097.00;4415862;32;19953;-49
2021/03/10 01:48:04;;;;;;;;;;;;;;;17.21;34.29;100111.13;4415339;32;19950;-49
2021/03/10 01:50:30;;;;;;;;;;;;;;;17.18;34.34;100116.34;4417881;32;20381;-50
2021/03/10 01:52:56;;;;;;;;;;;;;;;17.16;34.33;100111.87;4413635;32;19955;-50
2021/03/10 01:55:22;;;;;;;;;;;;;;;17.20;34.35;100118.97;4414602;32;19968;-47
2021/03/10 01:57:47;;;;;;;;;;;;;;;17.16;34.36;100107.50;4412068;32;19996;-51
2021/03/10 02:00:13;;;;;;;;;;;;;;;17.26;34.16;100111.22;4411454;32;19957;-47
2021/03/10 02:02:39;;;;;;;;;;;;;;;17.23;34.22;100122.56;4414919;32;19968;-51
2021/03/10 02:05:05;;;;;;;;;;;;;;;17.11;34.45;100124.94;4414481;32;19987;-53
2021/03/10 02:07:31;;;;;;;;;;;;;;;17.11;34.48;100120.56;4416214;32;19968;-50
2021/03/10 02:09:57;;;;;;;;;;;;;;;17.17;34.28;100121.56;4417788;32;20319;-49
2021/03/10 02:12:23;;;;;;;;;;;;;;;17.25;34.15;100112.09;4418693;32;20041;-48
2021/03/10 02:14:49;;;;;;;;;;;;;;;17.18;34.36;100115.44;4418486;32;20590;-52
2021/03/10 02:17:14;;;;;;;;;;;;;;;17.17;34.35;100125.09;4415755;32;19954;-48
2021/03/10 02:19:40;;;;;;;;;;;;;;;17.18;34.32;100125.97;4423467;32;19965;-48
2021/03/10 02:22:06;;;;;;;;;;;;;;;17.17;34.30;100129.44;4418434;32;19946;-45
2021/03/10 02:24:32;;;;;;;;;;;;;;;17.21;34.27;100121.66;4416595;32;19957;-48
2021/03/10 02:26:58;;;;;;;;;;;;;;;17.21;34.24;100126.91;4415527;32;19958;-50
2021/03/10 02:29:24;;;;;;;;;;;;;;;17.20;34.22;100127.78;4415438;32;19962;-48
2021/03/10 02:31:50;;;;;;;;;;;;;;;17.21;34.23;100133.91;4416914;32;20001;-52
2021/03/10 02:34:16;;;;;;;;;;;;;;;17.26;34.13;100134.91;4416253;32;19999;-48
2021/03/10 02:36:42;;;;;;;;;;;;;;;17.18;34.31;100141.75;4422065;32;19963;-47
2021/03/10 02:39:07;;;;;;;;;;;;;;;17.18;34.29;100136.47;4415315;32;20339;-47
2021/03/10 02:41:33;;;;;;;;;;;;;;;17.17;34.37;100132.09;4417866;32;19958;-47
2021/03/10 02:43:59;;;;;;;;;;;;;;;17.12;34.33;100127.63;4415512;32;20054;-48
2021/03/10 02:46:25;;;;;;;;;;;;;;;17.11;34.42;100125.84;4417833;32;19961;-47
2021/03/10 02:48:51;;;;;;;;;;;;;;;17.16;34.37;100125.03;4419058;32;20294;-48
2021/03/10 02:51:17;;;;;;;;;;;;;;;17.18;34.25;100129.50;4417786;32;20007;-48
2021/03/10 02:53:43;;;;;;;;;;;;;;;17.17;34.34;100132.09;4421050;32;20065;-51
2021/03/10 02:56:09;;;;;;;;;;;;;;;17.14;34.32;100131.16;4413910;32;20015;-47
2021/03/10 02:58:35;;;;;;;;;;;;;;;17.10;34.34;100134.59;4414368;32;19980;-48
2021/03/10 03:01:01;;;;;;;;;;;;;;;17.10;34.40;100134.59;4414409;32;19938;-45
2021/03/10 03:03:26;;;;;;;;;;;;;;;17.08;34.41;100131.00;4422779;32;20392;-44
2021/03/10 03:05:52;;;;;;;;;;;;;;;17.09;34.45;100129.28;4423086;32;19993;-50
2021/03/10 03:08:18;;;;;;;;;;;;;;;17.11;34.36;100131.09;4423010;32;19954;-48
2021/03/10 03:10:44;;;;;;;;;;;;;;;17.18;34.26;100136.47;4403701;32;20388;-45
2021/03/10 03:13:10;;;;;;;;;;;;;;;17.13;34.37;100133.75;4413843;32;20017;-44
2021/03/10 03:15:36;;;;;;;;;;;;;;;17.14;34.27;100132.88;4410032;32;19993;-44
2021/03/10 03:18:02;;;;;;;;;;;;;;;17.20;34.19;100138.31;4412499;32;20418;-48
2021/03/10 03:20:28;;;;;;;;;;;;;;;17.18;34.23;100132.13;4416512;32;21380;-50
2021/03/10 03:22:54;;;;;;;;;;;;;;;17.24;34.17;100132.25;4407566;32;19954;-46
2021/03/10 03:25:20;;;;;;;;;;;;;;;17.20;34.19;100133.03;4416240;32;21266;-47
2021/03/10 03:27:46;;;;;;;;;;;;;;;17.17;34.29;100125.09;4415728;32;19977;-44
2021/03/10 03:30:11;;;;;;;;;;;;;;;17.16;34.28;100127.69;4414176;32;19957;-52
2021/03/10 03:32:37;;;;;;;;;;;;;;;17.13;34.32;100134.66;4414159;32;20026;-45
2021/03/10 03:35:03;;;;;;;;;;;;;;;17.11;34.32;100132.84;4418532;32;20621;-48
2021/03/10 03:37:29;;;;;;;;;;;;;;;17.14;34.24;100131.16;4408799;32;19982;-44
2021/03/10 03:39:55;;;;;;;;;;;;;;;17.12;34.41;100126.72;4410962;32;19950;-52
2021/03/10 03:42:21;;;;;;;;;;;;;;;17.17;34.29;100118.91;4411458;32;19959;-47
2021/03/10 03:44:47;;;;;;;;;;;;;;;17.19;34.19;100127.72;4415092;32;19993;-51
2021/03/10 03:47:13;;;;;;;;;;;;;;;17.18;34.20;100131.22;4414624;32;19954;-46
2021/03/10 03:49:39;;;;;;;;;;;;;;;17.17;34.26;100124.19;4415174;32;19996;-47
2021/03/10 03:52:04;;;;;;;;;;;;;;;17.18;34.18;100121.59;4415319;32;19995;-53
2021/03/10 03:54:30;;;;;;;;;;;;;;;17.20;34.14;100130.41;4414039;32;19977;-47
2021/03/10 03:56:56;;;;;;;;;;;;;;;17.19;34.17;100133.00;4414587;32;19950;-48
2021/03/10 03:59:22;;;;;;;;;;;;;;;17.12;34.28;100138.13;4414758;32;19977;-46
2021/03/10 04:01:48;;;;;;;;;;;;;;;17.16;34.26;100133.81;4415555;32;19950;-49
2021/03/10 04:04:14;;;;;;;;;;;;;;;17.17;34.21;100145.22;4414360;32;19954;-48
2021/03/10 04:06:40;;;;;;;;;;;;;;;17.10;34.30;100144.22;4415237;32;19958;-47
2021/03/10 04:09:06;;;;;;;;;;;;;;;17.21;34.14;100144.44;4414137;32;20010;-50
2021/03/10 04:11:32;;;;;;;;;;;;;;;17.21;34.12;100144.44;4415290;32;19954;-44
2021/03/10 04:13:57;;;;;;;;;;;;;;;17.11;34.27;100141.63;4414541;32;19984;-47
2021/03/10 04:16:25;;;;;;;;;;;;;;;17.18;34.23;100147.00;4414365;32;19969;-46
2021/03/10 04:18:51;;;;;;;;;;;;;;;17.17;34.25;100147.88;4410858;32;19981;-49
2021/03/10 04:21:16;;;;;;;;;;;;;;;17.16;34.25;100146.09;4414295;32;19962;-46
2021/03/10 04:23:42;;;;;;;;;;;;;;;17.17;34.23;100137.34;4415068;32;19968;-48
2021/03/10 04:26:08;;;;;;;;;;;;;;;17.12;34.29;100131.97;4413857;32;19949;-50
2021/03/10 04:28:34;;;;;;;;;;;;;;;17.16;34.24;100133.81;4414202;32;19954;-47
2021/03/10 04:31:00;;;;;;;;;;;;;;;17.16;34.19;100139.06;4414564;32;20398;-48
2021/03/10 04:33:26;;;;;;;;;;;;;;;17.17;34.22;100150.50;4414566;32;19958;-47
2021/03/10 04:35:52;;;;;;;;;;;;;;;17.16;34.20;100146.09;4414466;32;20295;-51
2021/03/10 04:38:18;;;;;;;;;;;;;;;17.17;34.23;100150.50;4407864;32;19961;-48
2021/03/10 04:40:43;;;;;;;;;;;;;;;17.19;34.12;100140.88;4415764;32;19957;-47
2021/03/10 04:43:09;;;;;;;;;;;;;;;17.13;34.21;100146.91;4413203;32;19942;-50
2021/03/10 04:45:35;;;;;;;;;;;;;;;17.04;34.41;100147.59;4414264;32;20302;-51
2021/03/10 04:48:01;;;;;;;;;;;;;;;17.08;34.31;100152.06;4413859;32;19954;-49
2021/03/10 04:50:27;;;;;;;;;;;;;;;17.10;34.29;100150.38;4414342;32;20323;-47
2021/03/10 04:52:53;;;;;;;;;;;;;;;17.12;34.24;100155.66;4415210;32;20047;-47
2021/03/10 04:55:19;;;;;;;;;;;;;;;17.10;34.24;100160.91;4414148;32;20006;-46
2021/03/10 04:57:45;;;;;;;;;;;;;;;17.10;34.27;100166.16;4413530;32;19988;-50
2021/03/10 05:00:11;;;;;;;;;;;;;;;17.12;34.22;100172.34;4413864;32;19955;-47
2021/03/10 05:02:36;;;;;;;;;;;;;;;17.11;34.22;100167.94;4414818;32;19985;-46
2021/03/10 05:05:02;;;;;;;;;;;;;;;17.12;34.25;100169.72;4414293;32;19958;-48
2021/03/10 05:07:28;;;;;;;;;;;;;;;17.14;34.23;100173.25;4423347;32;20382;-51
2021/03/10 05:09:54;;;;;;;;;;;;;;;17.16;34.18;100172.41;4428377;32;19981;-48
2021/03/10 05:12:20;;;;;;;;;;;;;;;17.16;34.18;100169.78;4426160;32;19950;-47
2021/03/10 05:14:46;;;;;;;;;;;;;;;17.12;34.18;100167.09;4426734;32;20581;-48
2021/03/10 05:17:12;;;;;;;;;;;;;;;17.13;34.16;100174.12;4420476;32;19958;-47
2021/03/10 05:19:38;;;;;;;;;;;;;;;17.11;34.23;100177.56;4428714;32;19957;-52
2021/03/10 05:22:04;;;;;;;;;;;;;;;17.13;34.24;100174.12;4426270;32;19963;-49
2021/03/10 05:24:29;;;;;;;;;;;;;;;17.17;34.21;100174.19;4426516;32;19958;-50
2021/03/10 05:26:56;;;;;;;;;;;;;;;17.11;34.27;100177.56;4420671;32;19950;-49
2021/03/10 05:29:21;;;;;;;;;;;;;;;17.14;34.21;100177.62;4427908;32;20010;-50
2021/03/10 05:31:47;;;;;;;;;;;;;;;17.11;34.21;100177.56;4426248;32;19992;-44
2021/03/10 05:34:13;;;;;;;;;;;;;;;17.13;34.14;100179.37;4426913;32;19976;-48
2021/03/10 05:36:39;;;;;;;;;;;;;;;17.09;34.35;100180.16;4427286;32;20004;-51
2021/03/10 05:39:05;;;;;;;;;;;;;;;17.10;34.27;100171.44;4424570;32;19954;-48
2021/03/10 05:41:31;;;;;;;;;;;;;;;17.09;34.29;100180.16;4425395;32;20298;-48
2021/03/10 05:43:57;;;;;;;;;;;;;;;17.08;34.36;100180.13;4426839;32;19994;-49
2021/03/10 05:46:23;;;;;;;;;;;;;;;17.10;34.28;100184.59;4428987;32;20052;-46
2021/03/10 05:48:49;;;;;;;;;;;;;;;17.13;34.21;100184.66;4428933;32;19995;-46
2021/03/10 05:51:15;;;;;;;;;;;;;;;17.12;34.23;100188.12;4424075;32;19969;-46
2021/03/10 05:53:41;;;;;;;;;;;;;;;17.11;34.24;100186.34;4412470;32;19981;-52
2021/03/10 05:56:07;;;;;;;;;;;;;;;17.10;34.21;100194.22;4424735;32;20322;-45
2021/03/10 05:58:33;;;;;;;;;;;;;;;17.09;34.18;100185.41;4423843;32;19984;-51
2021/03/10 06:00:58;;;;;;;;;;;;;;;17.11;34.22;100188.09;4423661;32;19965;-49
2021/03/10 06:03:24;;;;;;;;;;;;;;;17.08;34.25;100183.63;4424845;32;19992;-49
2021/03/10 06:05:50;;;;;;;;;;;;;;;17.09;34.23;100185.41;4423885;32;20341;-49
2021/03/10 06:08:16;;;;;;;;;;;;;;;17.05;34.35;100188.84;4424224;32;19954;-49
2021/03/10 06:10:42;;;;;;;;;;;;;;;17.09;34.31;100185.41;4426045;32;20339;-49
2021/03/10 06:13:08;;;;;;;;;;;;;;;17.09;34.26;100176.66;4422487;32;19957;-48
2021/03/10 06:15:34;;;;;;;;;;;;;;;17.10;34.29;100189.84;4426428;32;19957;-51
2021/03/10 06:18:00;;;;;;;;;;;;;;;17.12;34.28;100189.84;4429822;32;20309;-49
2021/03/10 06:20:26;;;;;;;;;;;;;;;17.08;34.33;100204.69;4428189;32;20030;-50
2021/03/10 06:22:51;;;;;;;;;;;;;;;17.10;34.26;100205.63;4426627;32;19962;-49
2021/03/10 06:25:17;;;;;;;;;;;;;;;17.09;34.38;100210.84;4426416;32;19997;-48
2021/03/10 06:27:43;;;;;;;;;;;;;;;17.02;34.43;100198.38;4426409;32;19954;-49
2021/03/10 06:30:09;;;;;;;;;;;;;;;17.03;34.45;100184.38;4429020;32;19953;-51
2021/03/10 06:32:36;;;;;;;;;;;;;;;17.04;34.39;100192.31;4430894;32;19966;-50
2021/03/10 06:35:02;;;;;;;;;;;;;;;17.05;34.39;100204.62;4428844;32;19983;-51
2021/03/10 06:37:28;;;;;;;;;;;;;;;17.04;34.38;100204.56;4428326;32;19954;-51
2021/03/10 06:39:53;;;;;;;;;;;;;;;17.07;34.34;100208.16;4427086;32;19971;-53
2021/03/10 06:42:22;;;;;;;;;;;;;;;17.07;34.33;100218.69;4430822;32;20026;-49
2021/03/10 06:44:47;;;;;;;;;;;;;;;17.05;34.38;100219.53;4422745;32;19994;-53
2021/03/10 06:47:13;;;;;;;;;;;;;;;17.05;34.42;100215.16;4428888;32;19976;-50
2021/03/10 06:49:39;;;;;;;;;;;;;;;17.10;34.29;100216.16;4423782;32;20333;-49
2021/03/10 06:52:05;;;;;;;;;;;;;;;17.07;34.34;100208.16;4429160;32;19969;-54
2021/03/10 06:54:31;;;;;;;;;;;;;;;17.05;34.39;100199.34;4429202;32;19957;-50
2021/03/10 06:56:57;;;;;;;;;;;;;;;17.08;34.31;100220.47;4425423;32;20038;-53
2021/03/10 06:59:23;;;;;;;;;;;;;;;17.07;34.41;100216.06;4426623;32;20033;-50
2021/03/10 07:01:49;;;;;;;;;;;;;;;17.11;34.35;100225.81;4422965;32;19954;-50
2021/03/10 07:04:15;;;;;;;;;;;;;;;17.08;34.37;100215.22;4428475;32;19958;-52
2021/03/10 07:06:41;;;;;;;;;;;;;;;17.10;34.40;100212.63;4427007;32;19965;-50
2021/03/10 07:09:08;;;;;;;;;;;;;;;17.02;34.51;100215.06;4422385;32;20042;-51
2021/03/10 07:11:34;;;;;;;;;;;;;;;17.08;34.40;100215.22;4430011;32;19973;-49
2021/03/10 07:14:00;;;;;;;;;;;;;;;17.04;34.52;100218.62;4426794;32;20015;-51
2021/03/10 07:16:26;;;;;;;;;;;;;;;17.06;34.45;100223.94;4427792;32;20346;-51
2021/03/10 07:18:52;;;;;;;;;;;;;;;17.08;34.45;100225.72;4429250;32;19976;-48
2021/03/10 07:21:18;;;;;;;;;;;;;;;17.09;34.41;100235.41;4428120;32;19962;-52
2021/03/10 07:23:44;;;;;;;;;;;;;;;17.11;34.38;100235.44;4427912;32;20009;-50
2021/03/10 07:26:10;;;;;;;;;;;;;;;17.09;34.41;100232.78;4426953;32;19961;-51
2021/03/10 07:28:37;;;;;;;;;;;;;;;17.11;34.39;100231.09;4426292;32;19962;-52
2021/03/10 07:31:03;;;;;;;;;;;;;;;17.10;34.41;100229.31;4427353;32;19962;-47
2021/03/10 07:33:29;;;;;;;;;;;;;;;17.14;34.36;100236.41;4424389;32;19954;-50
2021/03/10 07:35:55;;;;;;;;;;;;;;;17.09;34.46;100253.81;4425334;32;20042;-47
2021/03/10 07:38:21;;;;;;;;;;;;;;;17.08;34.44;100252.03;4424758;32;19957;-50
2021/03/10 07:40:47;;;;;;;;;;;;;;;17.11;34.45;100254.78;4425514;32;19984;-49
2021/03/10 07:43:12;;;;;;;;;;;;;;;17.11;34.47;100252.12;4424857;32;19954;-51
2021/03/10 07:45:39;;;;;;;;;;;;;;;17.11;34.48;100253.87;4423529;32;20017;-53
2021/03/10 07:48:05;;;;;;;;;;;;;;;17.16;34.42;100246.09;4426600;32;19994;-50
2021/03/10 07:50:31;;;;;;;;;;;;;;;17.11;34.51;100246.87;4428410;32;19961;-50
2021/03/10 07:52:56;;;;;;;;;;;;;;;17.11;34.52;100254.78;4427604;32;19969;-52
2021/03/10 07:55:22;;;;;;;;;;;;;;;17.12;34.50;100256.53;4424919;32;21568;-50
2021/03/10 07:57:48;;;;;;;;;;;;;;;17.11;34.52;100257.41;4426861;32;19953;-50
2021/03/10 08:00:14;;;;;;;;;;;;;;;17.08;34.59;100261.69;4425960;32;19983;-50
2021/03/10 08:02:40;;;;;;;;;;;;;;;17.09;34.56;100269.59;4425808;32;20039;-54
2021/03/10 08:05:06;;;;;;;;;;;;;;;17.13;34.49;100268.84;4427582;32;19991;-50
2021/03/10 08:07:33;;;;;;;;;;;;;;;17.14;34.50;100282.88;4422992;32;20030;-50
2021/03/10 08:09:59;;;;;;;;;;;;;;;17.14;34.57;100267.09;4427263;32;20302;-52
2021/03/10 08:12:25;;;;;;;;;;;;;;;17.11;34.58;100273.19;4424927;32;19958;-50
2021/03/10 08:14:50;;;;;;;;;;;;;;;17.11;34.59;100265.28;4420984;32;19969;-51
2021/03/10 08:17:16;;;;;;;;;;;;;;;17.17;34.54;100277.72;4425199;32;19958;-50
2021/03/10 08:19:43;;;;;;;;;;;;;;;17.13;34.61;100276.75;4427483;32;19942;-50
2021/03/10 08:22:09;;;;;;;;;;;;;;;17.13;34.59;100284.63;4424381;32;19958;-53
2021/03/10 08:24:35;;;;;;;;;;;;;;;17.18;34.57;100286.47;4428754;32;19969;-50
2021/03/10 08:27:03;;;;;;;;;;;;;;;17.19;34.55;100280.38;4425854;32;20362;-54
2021/03/10 08:29:31;;;;;;;;;;;;;;;17.20;34.55;100282.13;4427905;32;19970;-51
2021/03/10 08:31:56;;;;;;;;;;;;;;;17.19;34.60;100280.38;4428290;32;19958;-52
2021/03/10 08:34:22;;;;;;;;;;;;;;;17.19;34.60;100277.72;4426837;32;20035;-49
2021/03/10 08:36:48;;;;;;;;;;;;;;;17.24;34.56;100286.66;4425151;32;20040;-52
2021/03/10 08:39:14;;;;;;;;;;;;;;;17.26;34.47;100283.16;4423730;32;20267;-51
2021/03/10 08:41:40;;;;;;;;;;;;;;;17.23;34.55;100274.34;4424748;32;19953;-51
2021/03/10 08:44:06;;;;;;;;;;;;;;;17.27;34.53;100273.53;4422253;32;19973;-50
2021/03/10 08:46:32;;;;;;;;;;;;;;;17.27;34.53;100270.91;4425154;32;20376;-52
2021/03/10 08:48:58;;;;;;;;;;;;;;;17.27;34.55;100268.28;4426420;32;20029;-49
2021/03/10 08:51:24;;;;;;;;;;;;;;;17.29;34.56;100266.56;4417905;32;19964;-50
2021/03/10 08:53:50;;;;;;;;;;;;;;;17.30;34.55;100272.75;4427139;32;20252;-51
2021/03/10 08:56:16;;;;;;;;;;;;;;;17.31;34.53;100270.13;4425693;32;19953;-50
2021/03/10 08:58:42;;;;;;;;;;;;;;;17.31;34.55;100267.50;4421978;32;20005;-47
2021/03/10 09:01:08;;;;;;;;;;;;;;;17.33;34.52;100265.78;4422232;32;20658;-50
2021/03/10 09:03:34;;;;;;;;;;;;;;;17.35;34.53;100279.91;4424505;32;19968;-54
2021/03/10 09:06:00;;;;;;;;;;;;;;;17.35;34.55;100272.00;4424895;32;19976;-51
2021/03/10 09:08:26;;;;;;;;;;;;;;;17.38;34.51;100277.31;4425363;32;20019;-50
2021/03/10 09:10:53;;;;;;;;;;;;;;;17.39;34.51;100271.19;4427438;32;20072;-51
2021/03/10 09:13:19;;;;;;;;;;;;;;;17.41;34.50;100265.97;4422261;32;20256;-50
2021/03/10 09:15:44;;;;;;;;;;;;;;;17.41;34.48;100261.59;4424477;32;19995;-50
2021/03/10 09:18:10;;;;;;;;;;;;;;;17.42;34.49;100259.84;4420431;32;20024;-48
2021/03/10 09:20:36;;;;;;;;;;;;;;;17.44;34.52;100262.50;4428940;32;19954;-47
2021/03/10 09:23:02;;;;;;;;;;;;;;;17.41;34.56;100266.84;4423820;32;20017;-49
2021/03/10 09:25:28;;;;;;;;;;;;;;;17.47;34.52;100267.84;4427653;32;21382;-52
2021/03/10 09:27:54;;;;;;;;;;;;;;;17.47;34.50;100266.09;4425322;32;19957;-53
2021/03/10 09:30:20;;;;;;;;;;;;;;;17.51;34.45;100267.06;4430843;32;19987;-51
2021/03/10 09:32:46;;;;;;;;;;;;;;;17.49;34.51;100271.41;4425978;32;19993;-54
2021/03/10 09:35:12;;;;;;;;;;;;;;;17.50;34.55;100265.28;4431129;32;19957;-51
2021/03/10 09:37:37;;;;;;;;;;;;;;;17.49;34.56;100268.78;4427871;32;20393;-52
2021/03/10 09:40:03;;;;;;;;;;;;;;;17.53;34.53;100265.34;4427184;32;19954;-51
2021/03/10 09:42:30;;;;;;;;;;;;;;;17.48;34.60;100273.16;4427048;32;19942;-50
2021/03/10 09:44:56;;;;;;;;;;;;;;;17.48;34.65;100277.53;4428837;32;20022;-52
2021/03/10 09:47:22;;;;;;;;;;;;;;;17.53;34.56;100270.63;4428709;32;20358;-49
2021/03/10 09:49:48;;;;;;;;;;;;;;;17.54;34.55;100273.31;4427940;32;20419;-52
2021/03/10 09:52:14;;;;;;;;;;;;;;;17.52;34.64;100274.13;4424364;32;19967;-52
2021/03/10 09:54:40;;;;;;;;;;;;;;;17.32;35.06;100269.25;4427777;32;19993;-49
2021/03/10 09:57:06;;;;;;;;;;;;;;;17.36;35.08;100263.25;4411234;32;20015;-48
2021/03/10 09:59:32;;;;;;;;;;;;;;;17.54;34.74;100267.13;4415134;32;19992;-52
2021/03/10 10:01:58;;;;;;;;;;;;;;;17.59;34.59;100264.59;4417387;32;19986;-52
2021/03/10 10:04:24;;;;;;;;;;;;;;;17.63;34.53;100256.81;4411137;32;19950;-49
2021/03/10 10:06:49;;;;;;;;;;;;;;;17.65;34.51;100251.56;4412787;32;20397;-48
2021/03/10 10:09:15;;;;;;;;;;;;;;;17.64;34.56;100253.31;4414464;32;19954;-50
2021/03/10 10:11:41;;;;;;;;;;;;;;;17.65;34.52;100248.91;4414399;32;20275;-51
2021/03/10 10:14:07;;;;;;;;;;;;;;;17.64;34.55;100245.41;4414043;32;20000;-50
2021/03/10 10:16:33;;;;;;;;;;;;;;;17.65;34.50;100247.19;4409524;32;19978;-50
2021/03/10 10:18:59;;;;;;;;;;;;;;;17.66;34.51;100241.06;4411871;32;19988;-51
2021/03/10 10:21:25;;;;;;;;;;;;;;;17.66;34.49;100235.81;4416806;32;19999;-53
2021/03/10 10:23:50;;;;;;;;;;;;;;;17.69;34.48;100245.53;4413863;32;20338;-51
2021/03/10 10:26:16;;;;;;;;;;;;;;;17.70;34.46;100232.38;4417570;32;19954;-50
2021/03/10 10:28:42;;;;;;;;;;;;;;;17.74;34.48;100243.00;4412557;32;20047;-47
2021/03/10 10:31:08;;;;;;;;;;;;;;;17.74;34.44;100243.84;4406782;32;19995;-53
2021/03/10 10:33:34;;;;;;;;;;;;;;;17.75;34.44;100240.37;4411856;32;19954;-48
2021/03/10 10:36:00;;;;;;;;;;;;;;;17.74;34.42;100237.72;4405714;32;20490;-48
2021/03/10 10:38:26;;;;;;;;;;;;;;;17.73;34.42;100235.94;4403086;32;19994;-57
2021/03/10 10:40:52;;;;;;;;;;;;;;;17.01;35.34;100229.09;4403648;32;19958;-55
2021/03/10 10:43:18;;;;;;;;;;;;;;;16.07;36.75;100245.91;4401121;32;19955;-57
2021/03/10 10:45:44;;;;;;;;;;;;;;;15.53;37.91;100238.19;4402608;32;19988;-56
2021/03/10 10:48:10;;;;;;;;;;;;;;;15.10;38.87;100236.87;4402021;32;19958;-56
2021/03/10 10:50:36;;;;;;;;;;;;;;;15.02;38.73;100226.16;4400774;32;20019;-56
2021/03/10 10:53:04;;;;;;;;;;;;;;;14.60;39.40;100230.00;4415627;32;20410;-56
2021/03/10 10:55:30;;;;;;;;;;;;;;;14.56;39.60;100229.00;4418952;32;20015;-56
2021/03/10 10:57:56;;;;;;;;;;;;;;;14.62;39.65;100223.94;4402022;32;20314;-56
2021/03/10 11:00:22;;;;;;;;;;;;;;;14.86;39.17;100223.00;4406509;32;20239;-58
2021/03/10 11:02:47;;;;;;;;;;;;;;;14.89;39.04;100225.75;4413607;32;19993;-57
2021/03/10 11:05:13;;;;;;;;;;;;;;;14.74;39.27;100228.75;4414512;32;19957;-56
2021/03/10 11:07:39;;;;;;;;;;;;;;;14.86;39.15;100227.37;4416167;32;20442;-57
2021/03/10 11:10:05;;;;;;;;;;;;;;;14.73;39.27;100221.72;4420059;32;20264;-57
2021/03/10 11:12:31;;;;;;;;;;;;;;;14.58;39.75;100222.06;4411908;32;19991;-57
2021/03/10 11:14:57;;;;;;;;;;;;;;;14.58;39.70;100223.81;4413427;32;19994;-56
2021/03/10 11:17:23;;;;;;;;;;;;;;;14.51;39.95;100225.34;4416767;32;20033;-56
2021/03/10 11:19:49;;;;;;;;;;;;;;;14.67;39.70;100225.84;4417988;32;19961;-57
2021/03/10 11:22:15;;;;;;;;;;;;;;;14.19;40.83;100225.97;4420363;32;20016;-56
2021/03/10 11:24:41;;;;;;;;;;;;;;;14.21;40.80;100226.03;4419299;32;19999;-56
2021/03/10 11:27:07;;;;;;;;;;;;;;;14.60;40.09;100220.37;4415459;32;19982;-56
2021/03/10 11:29:33;;;;;;;;;;;;;;;14.55;40.25;100216.72;4416718;32;19966;-55
2021/03/10 11:32:00;;;;;;;;;;;;;;;14.57;40.33;100220.28;4417099;32;20042;-56
2021/03/10 11:34:27;;;;;;;;;;;;;;;14.56;40.45;100221.13;4417135;32;19999;-56
2021/03/10 11:36:52;;;;;;;;;;;;;;;14.54;40.38;100220.19;4417503;32;19965;-57
2021/03/10 11:39:18;;;;;;;;;;;;;;;14.67;40.09;100215.38;4420222;32;19987;-56
2021/03/10 11:41:44;;;;;;;;;;;;;;;14.45;40.63;100212.00;4409607;32;20037;-57
2021/03/10 11:44:10;;;;;;;;;;;;;;;14.74;40.00;100212.12;4420522;32;20595;-56
2021/03/10 11:46:36;;;;;;;;;;;;;;;15.08;39.31;100207.97;4415186;32;20018;-57
2021/03/10 11:49:02;;;;;;;;;;;;;;;14.55;40.65;100210.59;4417890;32;19969;-56
2021/03/10 11:51:28;;;;;;;;;;;;;;;14.41;40.67;100202.28;4416911;32;19986;-56
2021/03/10 11:53:54;;;;;;;;;;;;;;;14.54;40.58;100201.84;4416393;32;19961;-56
2021/03/10 11:56:20;;;;;;;;;;;;;;;14.50;40.76;100201.69;4420944;32;20306;-57
2021/03/10 11:58:46;;;;;;;;;;;;;;;14.39;40.90;100202.22;4422061;32;19977;-56
2021/03/10 12:01:55;;;;;;;;;;;;;;;14.98;40.18;100187.53;4420827;31;20811;-57
2021/03/10 12:04:21;;;;;;;;;;;;;;;14.98;40.18;100187.53;4417077;32;19981;-58
2021/03/10 12:06:47;;;;;;;;;;;;;;;14.38;40.98;100189.03;4425939;32;20271;-57
2021/03/10 12:09:13;;;;;;;;;;;;;;;14.65;40.42;100186.47;4425526;32;20005;-57
2021/03/10 12:11:39;;;;;;;;;;;;;;;14.39;40.95;100189.09;4426469;32;20439;-59
2021/03/10 12:14:05;;;;;;;;;;;;;;;14.56;40.48;100187.06;4425723;32;19995;-58
2021/03/10 12:16:31;;;;;;;;;;;;;;;14.36;41.00;100188.09;4426168;32;19994;-58
2021/03/10 12:18:57;;;;;;;;;;;;;;;14.67;40.48;100168.19;4423921;32;19972;-59
2021/03/10 12:21:22;;;;;;;;;;;;;;;14.32;41.35;100177.53;4425702;32;20033;-59
2021/03/10 12:23:48;;;;;;;;;;;;;;;14.21;41.73;100176.28;4426921;32;19993;-58
2021/03/10 12:26:14;;;;;;;;;;;;;;;14.68;40.56;100165.59;4426047;32;20347;-55
2021/03/10 12:28:40;;;;;;;;;;;;;;;14.93;40.10;100161.16;4424748;32;19958;-57